Bonita, CA

8:37 PM PDT on August 30, 2014 (GMT -0700)
RAWS SAN MIGUEL CA US | Change Station
CLOSE
Current Station
Personal Weather Station
Location: Bonita, CA
Elevation: 424 ft
Nearby Weather Stations

Elev 424 ft 32.69 °N, 116.97 °W | Updated 47 minutes ago

Clear
Clear
72 °F
Feels Like 74 °F
N
4
Wind Variable Wind from SSW
Gusts 7.0 mph

Today
High -- | Low -- °F
--% Chance of Precip.
Yesterday
High -- | Low -- °F
Precip. -- in
6:21 AM 7:15 PM
Waxing Crescent, 27% visible
Pressure 29.77 in
Visibility 10.0 miles
Clouds Clear
Heat Index 74 °F
Dew Point 64 °F
Humidity 75%
Rainfall 0.00 in
Snow Depth Not available.
UV 0 out of 12
Pollen 8.10 out of 12
Ozone Good
PM2.5 Good
Flu Activity Not available.
METAR KSDM 310253Z 28003KT 10SM CLR 21/18 A2978 RMK AO2 SLP081 T02060178 53004 $

More Conditions Fewer Conditions

Pressure 29.77 in
Visibility 10.0 miles
Clouds Clear
Heat Index 74 °F
Dew Point 64 °F
Humidity 75%
Rainfall 0.00 in
Snow Depth Not available.
UV 0 out of 12
Pollen 8.10 out of 12
Ozone Good
PM2.5 Good
Flu Activity Not available.
METAR KSDM 310253Z 28003KT 10SM CLR 21/18 A2978 RMK AO2 SLP081 T02060178 53004 $

More Conditions Fewer Conditions

10-Day Weather Forecast

Almanac

Astronomy

Aug. 30, 2014 Rise Set
Actual Time 6:21 AM PDT 7:15 PM PDT
Civil Twilight 5:56 AM PDT 7:40 PM PDT
Nautical Twilight 5:26 AM PDT 8:09 PM PDT
Astronomical Twilight 4:55 AM PDT 8:40 PM PDT
Moon 10:55 AM PDT (8/30) 10:10 PM PDT (8/30)
Length of Visible Light 13h 43m
Length of Day
12h 53m
Tomorrow will be 1m 55s shorter.
Waxing Crescent, 27% of the Moon is Illuminated
Today
Waxing Crescent
Sep 2
First Quarter
Sep 8
Full
Sep 15
Last Quarter
Sep 24
New

Today's Extremes

State Highs State Lows

Community

WunderPhotos

Upload Photos

1,748,772 photos uploaded!

Nearby

Air Quality

  Air Quality AQ Index Pollutant
Yesterday Good
PM2.5
Yesterday Good
OZONE
Current Good
PM2.5
Current Good
OZONE
Saturday Moderate
PM2.5
Saturday Moderate
OZONE
Sunday Moderate
PM2.5
Sunday Good
OZONE
Monday Good
PM2.5
Monday Good
OZONE

Snow Depth

Station Depth Elevation
Leavitt Lake 0 in 9400 ft
Leavitt Meadows 0 in 7200 ft
Summit Meadow 0 in 9122 ft
Monitor Pass 0 in 8350 ft
Hagan's Meadow 0 in 8000 ft

Earthquake Activity

City Distance Mag. Time & Date
No recent earthquake activity has been reported nearby.
Minimum magnitude displayed is 2.5.

Coastal Water Temperatures

Place Temperature
La Jolla, CA 72.0 °F
San Diego, CA 75.0 °F

Nearby Weather Stations